createdAt,value
2022-10-09T00:01:27.457Z,10.70
2022-10-09T00:03:56.658Z,10.70
2022-10-09T00:06:27.191Z,10.70
2022-10-09T00:08:54.601Z,10.70
2022-10-09T00:11:24.638Z,10.70
2022-10-09T00:13:53.744Z,10.70
2022-10-09T00:16:22.306Z,10.60
2022-10-09T00:18:50.317Z,10.50
2022-10-09T00:21:19.319Z,10.50
2022-10-09T00:23:46.825Z,10.40
2022-10-09T00:26:14.969Z,10.40
2022-10-09T00:28:42.607Z,10.30
2022-10-09T00:31:11.620Z,10.30
2022-10-09T00:33:39.348Z,10.30
2022-10-09T00:36:09.761Z,10.30
2022-10-09T00:38:37.379Z,10.30
2022-10-09T00:41:05.462Z,10.40
2022-10-09T00:43:48.725Z,10.40
2022-10-09T00:46:24.605Z,10.50
2022-10-09T00:49:14.511Z,10.50
2022-10-09T00:51:44.161Z,10.50
2022-10-09T00:54:15.112Z,10.40
2022-10-09T00:56:43.109Z,10.40
2022-10-09T00:59:11.671Z,10.40
2022-10-09T01:01:41.707Z,10.30
2022-10-09T01:04:09.186Z,10.30
2022-10-09T01:07:01.380Z,10.20
2022-10-09T01:09:50.584Z,10.20
2022-10-09T01:12:33.889Z,10.10
2022-10-09T01:15:09.356Z,10.20
2022-10-09T01:18:04.609Z,10.30
2022-10-09T01:21:05.993Z,10.20
2022-10-09T01:23:33.284Z,10.30
2022-10-09T01:26:15.392Z,10.30
2022-10-09T01:28:51.359Z,10.30
2022-10-09T01:31:20.941Z,10.20
2022-10-09T01:33:49.604Z,10.30
2022-10-09T01:36:17.984Z,10.30
2022-10-09T01:38:47.024Z,10.30
2022-10-09T01:41:14.515Z,10.40
2022-10-09T01:43:42.302Z,10.40
2022-10-09T01:46:21.794Z,10.50
2022-10-09T01:48:55.948Z,10.50
2022-10-09T01:51:29.602Z,10.60
2022-10-09T01:54:01.921Z,10.70
2022-10-09T01:56:31.875Z,10.70
2022-10-09T01:59:04.999Z,10.70
2022-10-09T02:01:37.908Z,10.80
2022-10-09T02:04:08.943Z,10.80
2022-10-09T02:06:40.256Z,10.80
2022-10-09T02:09:12.579Z,10.80
2022-10-09T02:11:42.715Z,10.80
2022-10-09T02:14:10.371Z,10.80
2022-10-09T02:16:40.619Z,10.80
2022-10-09T02:19:20.032Z,10.80
2022-10-09T02:22:13.168Z,10.80
2022-10-09T02:24:41.365Z,10.80
2022-10-09T02:27:10.369Z,10.80
2022-10-09T02:29:40.529Z,10.80
2022-10-09T02:32:08.199Z,10.80
2022-10-09T02:34:35.898Z,10.80
2022-10-09T02:37:43.594Z,10.70
2022-10-09T02:40:11.461Z,10.70
2022-10-09T02:42:38.827Z,10.70
2022-10-09T02:45:06.935Z,10.70
2022-10-09T02:47:34.503Z,10.70
2022-10-09T02:50:01.901Z,10.70
2022-10-09T02:52:29.332Z,10.70
2022-10-09T02:54:56.665Z,10.70
2022-10-09T02:57:24.019Z,10.80
2022-10-09T02:59:51.364Z,10.80
2022-10-09T03:02:18.801Z,10.70
2022-10-09T03:04:46.326Z,10.70
2022-10-09T03:07:13.708Z,10.70
2022-10-09T03:09:41.140Z,10.80
2022-10-09T03:12:08.542Z,10.80
2022-10-09T03:14:35.952Z,10.80
2022-10-09T03:17:03.332Z,10.80
2022-10-09T03:19:30.707Z,10.80
2022-10-09T03:21:58.097Z,10.80
2022-10-09T03:24:25.454Z,10.90
2022-10-09T03:26:52.894Z,10.90
2022-10-09T03:29:20.319Z,10.90
2022-10-09T03:31:52.439Z,10.90
2022-10-09T03:34:20.298Z,10.90
2022-10-09T03:36:47.752Z,10.90
2022-10-09T03:39:15.219Z,10.90
2022-10-09T03:41:42.681Z,10.90
2022-10-09T03:44:10.051Z,10.90
2022-10-09T03:46:37.599Z,10.80
2022-10-09T03:49:05.070Z,10.80
2022-10-09T03:51:32.488Z,10.80
2022-10-09T03:53:59.956Z,10.80
2022-10-09T03:56:27.320Z,10.80
2022-10-09T03:58:54.772Z,10.80
2022-10-09T04:01:22.280Z,10.80
2022-10-09T04:03:49.735Z,10.80
2022-10-09T04:06:17.153Z,10.80
2022-10-09T04:08:44.546Z,10.80
2022-10-09T04:11:11.934Z,10.80
2022-10-09T04:13:39.357Z,10.90
2022-10-09T04:16:09.541Z,10.90
2022-10-09T04:18:36.926Z,10.90
2022-10-09T04:21:04.357Z,10.90
2022-10-09T04:23:31.836Z,10.90
2022-10-09T04:26:00.463Z,10.90
2022-10-09T04:28:30.426Z,10.90
2022-10-09T04:30:59.063Z,11.00
2022-10-09T04:33:27.637Z,11.10
2022-10-09T04:35:56.275Z,11.10
2022-10-09T04:38:25.029Z,11.10
2022-10-09T04:41:06.697Z,11.10
2022-10-09T04:43:35.136Z,11.10
2022-10-09T04:46:12.432Z,11.10
2022-10-09T04:48:41.172Z,11.10
2022-10-09T04:51:09.393Z,11.10
2022-10-09T04:53:37.964Z,11.10
2022-10-09T04:56:13.945Z,11.20
2022-10-09T04:58:41.889Z,11.30
2022-10-09T05:01:14.266Z,11.30
2022-10-09T05:03:41.867Z,11.40
2022-10-09T05:06:11.661Z,11.40
2022-10-09T05:08:39.996Z,11.40
2022-10-09T05:11:10.879Z,11.40
2022-10-09T05:13:42.146Z,11.40
2022-10-09T05:16:12.689Z,11.40
2022-10-09T05:18:51.451Z,11.40
2022-10-09T05:21:19.559Z,11.50
2022-10-09T05:23:47.660Z,11.60
2022-10-09T05:26:18.292Z,11.70
2022-10-09T05:28:46.888Z,11.70
2022-10-09T05:31:24.597Z,11.80
2022-10-09T05:33:52.657Z,11.80
2022-10-09T05:36:20.607Z,11.90
2022-10-09T05:38:48.392Z,12.00
2022-10-09T05:41:17.417Z,12.10
2022-10-09T05:43:48.126Z,12.10
2022-10-09T05:46:19.762Z,12.30
2022-10-09T05:48:53.329Z,12.20
2022-10-09T05:51:23.658Z,12.30
2022-10-09T05:53:51.412Z,12.40
2022-10-09T05:56:21.549Z,12.60
2022-10-09T05:58:59.758Z,12.70
2022-10-09T06:01:30.517Z,12.80
2022-10-09T06:03:59.909Z,12.90
2022-10-09T06:06:29.934Z,12.80
2022-10-09T06:08:57.934Z,12.90
2022-10-09T06:11:28.883Z,13.10
2022-10-09T06:13:56.702Z,13.30
2022-10-09T06:16:27.058Z,13.40
2022-10-09T06:18:55.599Z,13.40
2022-10-09T06:21:23.978Z,13.50
2022-10-09T06:23:53.142Z,13.60
2022-10-09T06:26:21.897Z,13.60
2022-10-09T06:28:49.902Z,13.60
2022-10-09T06:31:20.121Z,13.50
2022-10-09T06:33:49.588Z,13.40
2022-10-09T06:36:19.252Z,13.30
2022-10-09T06:38:47.417Z,13.30
2022-10-09T06:41:20.429Z,13.20
2022-10-09T06:43:56.317Z,13.20
2022-10-09T06:46:26.732Z,13.20
2022-10-09T06:48:54.229Z,13.20
2022-10-09T06:51:25.035Z,13.20
2022-10-09T06:53:53.947Z,13.20
2022-10-09T06:56:23.187Z,13.20
2022-10-09T06:58:50.784Z,13.10
2022-10-09T07:01:19.770Z,13.10
2022-10-09T07:03:53.113Z,13.20
2022-10-09T07:06:23.390Z,13.30
2022-10-09T07:08:53.252Z,13.40
2022-10-09T07:11:26.075Z,13.50
2022-10-09T07:13:56.472Z,13.50
2022-10-09T07:16:28.780Z,13.70
2022-10-09T07:18:56.443Z,13.70
2022-10-09T07:21:24.409Z,13.70
2022-10-09T07:23:51.835Z,13.70
2022-10-09T07:26:22.423Z,13.60
2022-10-09T07:28:51.034Z,13.70
2022-10-09T07:31:19.168Z,13.80
2022-10-09T07:33:51.565Z,13.90
2022-10-09T07:36:19.695Z,13.90
2022-10-09T07:38:54.955Z,13.90
2022-10-09T07:41:23.984Z,13.80
2022-10-09T07:43:51.615Z,13.80
2022-10-09T07:46:21.079Z,13.80
2022-10-09T07:48:49.287Z,13.90
2022-10-09T07:51:19.514Z,14.00
2022-10-09T07:53:47.642Z,14.00
2022-10-09T07:56:16.622Z,14.10
2022-10-09T07:58:44.486Z,14.00
2022-10-09T08:01:16.129Z,14.00
2022-10-09T08:03:47.141Z,14.00
2022-10-09T08:06:14.583Z,14.00
2022-10-09T08:08:42.122Z,13.90
2022-10-09T08:11:17.988Z,13.90
2022-10-09T08:13:46.533Z,13.80
2022-10-09T08:16:14.324Z,13.80
2022-10-09T08:18:41.855Z,13.80
2022-10-09T08:21:13.111Z,13.80
2022-10-09T08:23:40.557Z,13.80
2022-10-09T08:26:19.072Z,13.80
2022-10-09T08:28:55.372Z,13.70
2022-10-09T08:31:24.032Z,13.80
2022-10-09T08:33:56.296Z,14.00
2022-10-09T08:36:24.398Z,14.10
2022-10-09T08:38:52.292Z,14.10
2022-10-09T08:41:27.949Z,14.10
2022-10-09T08:44:38.685Z,14.20
2022-10-09T08:47:42.930Z,14.30
2022-10-09T08:50:15.641Z,14.50
2022-10-09T08:52:53.030Z,14.80
2022-10-09T08:55:25.991Z,15.00
2022-10-09T08:57:56.476Z,15.10
2022-10-09T09:00:35.072Z,15.20
2022-10-09T09:03:26.478Z,15.30
2022-10-09T09:06:07.140Z,15.50
2022-10-09T09:08:52.967Z,15.50
2022-10-09T09:11:39.595Z,15.50
2022-10-09T09:14:22.004Z,15.50
2022-10-09T09:16:58.382Z,15.30
2022-10-09T09:20:03.733Z,15.30
2022-10-09T09:22:33.032Z,15.20
2022-10-09T09:25:01.317Z,15.00
2022-10-09T09:27:38.398Z,14.90
2022-10-09T09:30:23.519Z,14.70
2022-10-09T09:32:54.734Z,14.60
2022-10-09T09:35:33.002Z,14.60
2022-10-09T09:38:01.169Z,14.50
2022-10-09T09:40:37.779Z,14.50
2022-10-09T09:43:19.366Z,14.50
2022-10-09T09:45:47.068Z,14.50
2022-10-09T09:48:40.908Z,14.30
2022-10-09T09:51:28.483Z,14.40
2022-10-09T09:54:07.736Z,14.30
2022-10-09T09:57:11.117Z,14.40
2022-10-09T09:59:42.113Z,14.30
2022-10-09T10:02:17.656Z,14.30
2022-10-09T10:04:57.604Z,14.30
2022-10-09T10:07:29.766Z,14.30
2022-10-09T10:10:10.516Z,14.40
2022-10-09T10:12:58.881Z,14.30
2022-10-09T10:15:31.650Z,14.20
2022-10-09T10:18:15.399Z,14.20
2022-10-09T10:20:45.913Z,14.20
2022-10-09T10:23:24.710Z,14.10
2022-10-09T10:25:58.582Z,14.10
2022-10-09T10:28:31.541Z,14.00
2022-10-09T10:31:02.898Z,14.00
2022-10-09T10:33:33.755Z,14.00
2022-10-09T10:36:01.618Z,14.00
2022-10-09T10:38:34.797Z,14.00
2022-10-09T10:41:46.484Z,14.00
2022-10-09T10:44:34.227Z,14.00
2022-10-09T10:47:10.985Z,13.90
2022-10-09T10:49:38.517Z,13.90
2022-10-09T10:52:11.152Z,13.90
2022-10-09T10:54:54.023Z,13.90
2022-10-09T10:57:24.575Z,14.00
2022-10-09T11:00:04.217Z,14.00
2022-10-09T11:02:46.247Z,14.20
2022-10-09T11:05:28.597Z,14.40
2022-10-09T11:08:24.992Z,14.50
2022-10-09T11:11:18.145Z,14.50
2022-10-09T11:14:19.297Z,14.50
2022-10-09T11:17:10.835Z,15.30
2022-10-09T11:20:22.195Z,15.40
2022-10-09T11:22:58.479Z,15.80
2022-10-09T11:25:29.006Z,17.10
2022-10-09T11:28:09.632Z,17.80
2022-10-09T11:30:44.192Z,18.20
2022-10-09T11:33:27.012Z,18.60
2022-10-09T11:36:05.084Z,20.00
2022-10-09T11:38:39.565Z,21.20
2022-10-09T11:41:07.745Z,22.30
2022-10-09T11:43:57.857Z,23.60
2022-10-09T11:47:19.968Z,23.50
2022-10-09T11:49:59.288Z,23.90
2022-10-09T11:52:41.669Z,21.40
2022-10-09T11:55:21.150Z,20.50
2022-10-09T11:57:49.243Z,19.90
2022-10-09T12:00:28.067Z,19.10
2022-10-09T12:03:04.834Z,18.40
2022-10-09T12:05:47.567Z,17.90
2022-10-09T12:08:19.554Z,17.00
2022-10-09T12:11:10.709Z,16.50
2022-10-09T12:13:38.866Z,16.10
2022-10-09T12:16:09.285Z,15.90
2022-10-09T12:18:40.155Z,15.90
2022-10-09T12:21:18.641Z,17.10
2022-10-09T12:23:47.927Z,19.50
2022-10-09T12:26:17.763Z,22.00
2022-10-09T12:28:55.077Z,23.10
2022-10-09T12:31:36.334Z,21.30
2022-10-09T12:34:26.761Z,19.30
2022-10-09T12:37:19.731Z,18.00
2022-10-09T12:39:48.962Z,17.50
2022-10-09T12:42:23.875Z,17.50
2022-10-09T12:44:54.313Z,19.20
2022-10-09T12:47:27.579Z,21.30
2022-10-09T12:50:28.181Z,23.00
2022-10-09T12:53:02.090Z,24.60
2022-10-09T12:55:33.370Z,22.00
2022-10-09T12:58:14.169Z,19.80
2022-10-09T13:00:42.207Z,18.20
2022-10-09T13:03:38.903Z,17.20
2022-10-09T13:06:13.719Z,16.50
2022-10-09T13:08:41.609Z,16.10
2022-10-09T13:11:25.652Z,15.90
2022-10-09T13:13:54.883Z,15.90
2022-10-09T13:16:23.571Z,15.70
2022-10-09T13:19:02.967Z,15.80
2022-10-09T13:21:35.238Z,15.80
2022-10-09T13:24:13.574Z,15.60
2022-10-09T13:26:43.559Z,15.50
2022-10-09T13:29:13.721Z,15.50
2022-10-09T13:31:43.949Z,15.60
2022-10-09T13:34:15.244Z,15.50
2022-10-09T13:36:42.775Z,15.30
2022-10-09T13:39:15.007Z,15.30
2022-10-09T13:41:44.766Z,15.20
2022-10-09T13:44:12.175Z,15.20
2022-10-09T13:46:39.591Z,15.10
2022-10-09T13:49:07.084Z,15.10
2022-10-09T13:51:36.278Z,15.10
2022-10-09T13:54:03.776Z,15.10
2022-10-09T13:56:31.196Z,15.10
2022-10-09T13:58:58.774Z,15.30
2022-10-09T14:01:26.339Z,15.10
2022-10-09T14:03:53.881Z,15.00
2022-10-09T14:06:22.569Z,16.00
2022-10-09T14:08:50.380Z,17.30
2022-10-09T14:11:18.080Z,18.50
2022-10-09T14:13:45.579Z,19.40
2022-10-09T14:16:13.026Z,20.50
2022-10-09T14:18:40.607Z,20.90
2022-10-09T14:21:15.220Z,21.00
2022-10-09T14:23:43.501Z,20.50
2022-10-09T14:26:10.943Z,20.20
2022-10-09T14:28:38.794Z,20.40
2022-10-09T14:31:07.718Z,20.70
2022-10-09T14:33:35.190Z,20.40
2022-10-09T14:36:14.955Z,20.70
2022-10-09T14:38:42.949Z,20.40
2022-10-09T14:41:10.906Z,19.90
2022-10-09T14:43:38.318Z,19.50
2022-10-09T14:46:12.406Z,19.20
2022-10-09T14:48:40.281Z,19.00
2022-10-09T14:51:19.362Z,19.10
2022-10-09T14:53:47.374Z,19.40
2022-10-09T14:56:20.275Z,19.30
2022-10-09T14:58:48.006Z,19.20
2022-10-09T15:01:17.433Z,19.30
2022-10-09T15:03:46.207Z,19.00
2022-10-09T15:06:17.299Z,19.20
2022-10-09T15:08:44.659Z,19.40
2022-10-09T15:11:12.653Z,18.60
2022-10-09T15:13:40.512Z,18.50
2022-10-09T15:16:18.625Z,18.00
2022-10-09T15:18:48.200Z,17.50
2022-10-09T15:21:35.243Z,17.00
2022-10-09T15:24:03.916Z,16.50
2022-10-09T15:26:33.204Z,16.10
2022-10-09T15:29:05.412Z,15.80
2022-10-09T15:31:42.304Z,15.30
2022-10-09T15:34:16.149Z,14.90
2022-10-09T15:36:45.889Z,14.40
2022-10-09T15:39:14.120Z,14.10
2022-10-09T15:41:43.413Z,13.90
2022-10-09T15:44:17.589Z,13.70
2022-10-09T15:46:47.073Z,13.50
2022-10-09T15:49:14.772Z,13.40
2022-10-09T15:51:42.238Z,13.20
2022-10-09T15:54:11.617Z,13.10
2022-10-09T15:56:40.316Z,13.00
2022-10-09T15:59:12.195Z,12.90
2022-10-09T16:01:39.794Z,12.80
2022-10-09T16:04:07.287Z,12.60
2022-10-09T16:06:35.295Z,12.60
2022-10-09T16:09:04.152Z,12.50
2022-10-09T16:11:32.096Z,12.50
2022-10-09T16:13:59.569Z,12.50
2022-10-09T16:16:27.849Z,12.40
2022-10-09T16:18:57.066Z,12.40
2022-10-09T16:21:27.812Z,12.40
2022-10-09T16:23:58.852Z,12.30
2022-10-09T16:26:29.334Z,12.30
2022-10-09T16:28:56.859Z,12.20
2022-10-09T16:31:30.880Z,12.20
2022-10-09T16:33:59.025Z,12.20
2022-10-09T16:36:27.243Z,12.20
2022-10-09T16:38:55.723Z,12.20
2022-10-09T16:41:23.938Z,12.10
2022-10-09T16:43:56.461Z,12.10
2022-10-09T16:49:01.931Z,12.10
2022-10-09T16:51:32.541Z,12.10
2022-10-09T16:54:02.260Z,12.20
2022-10-09T16:56:33.325Z,12.20
2022-10-09T16:59:02.035Z,12.20
2022-10-09T17:01:29.518Z,12.20
2022-10-09T17:03:59.331Z,12.20
2022-10-09T17:06:27.314Z,12.20
2022-10-09T17:08:57.664Z,12.20
2022-10-09T17:11:27.153Z,12.30
2022-10-09T17:13:56.903Z,12.20
2022-10-09T17:16:27.968Z,12.30
2022-10-09T17:18:55.629Z,12.30
2022-10-09T17:21:24.972Z,12.20
2022-10-09T17:23:55.065Z,12.20
2022-10-09T17:26:24.509Z,12.20
2022-10-09T17:28:52.896Z,12.20
2022-10-09T17:31:23.326Z,12.10
2022-10-09T17:33:57.845Z,11.90
2022-10-09T17:36:27.633Z,11.80
2022-10-09T17:38:55.239Z,11.80
2022-10-09T17:41:24.666Z,11.70
2022-10-09T17:43:53.798Z,11.70
2022-10-09T17:46:22.400Z,11.60
2022-10-09T17:48:53.531Z,11.70
2022-10-09T17:51:22.575Z,11.70
2022-10-09T17:53:50.059Z,11.60
2022-10-09T17:56:18.407Z,11.70
2022-10-09T17:58:51.166Z,11.60
2022-10-09T18:01:19.164Z,11.60
2022-10-09T18:03:46.712Z,11.60
2022-10-09T18:06:17.197Z,11.60
2022-10-09T18:08:45.294Z,11.60
2022-10-09T18:11:15.544Z,11.70
2022-10-09T18:13:44.261Z,11.70
2022-10-09T18:16:14.720Z,11.60
2022-10-09T18:18:42.436Z,11.60
2022-10-09T18:21:12.622Z,11.70
2022-10-09T18:23:40.490Z,11.70
2022-10-09T18:26:13.623Z,11.70
2022-10-09T18:28:42.667Z,11.70
2022-10-09T18:31:16.122Z,11.60
2022-10-09T18:33:43.623Z,11.50
2022-10-09T18:36:23.059Z,11.40
2022-10-09T18:38:53.616Z,11.30
2022-10-09T18:41:22.657Z,11.20
2022-10-09T18:43:51.156Z,11.20
2022-10-09T18:46:21.485Z,11.00
2022-10-09T18:48:49.681Z,11.00
2022-10-09T18:51:20.577Z,10.90
2022-10-09T18:53:51.852Z,10.90
2022-10-09T18:56:21.016Z,10.90
2022-10-09T18:58:51.277Z,10.80
2022-10-09T19:01:18.949Z,10.80
2022-10-09T19:03:49.218Z,10.80
2022-10-09T19:06:18.684Z,10.70
2022-10-09T19:08:46.796Z,10.60
2022-10-09T19:11:14.689Z,10.60
2022-10-09T19:13:43.187Z,10.50
2022-10-09T19:16:10.975Z,10.40
2022-10-09T19:18:39.532Z,10.40
2022-10-09T19:21:07.407Z,10.30
2022-10-09T19:23:34.757Z,10.30
2022-10-09T19:26:02.244Z,10.30
2022-10-09T19:28:37.156Z,10.30
2022-10-09T19:31:06.378Z,10.20
2022-10-09T19:33:33.977Z,10.20
2022-10-09T19:36:01.508Z,10.30
2022-10-09T19:38:28.999Z,10.20
2022-10-09T19:40:56.538Z,10.20
2022-10-09T19:43:25.280Z,10.20
2022-10-09T19:46:05.611Z,10.20
2022-10-09T19:48:33.347Z,10.10
2022-10-09T19:51:08.957Z,10.00
2022-10-09T19:53:36.482Z,10.00
2022-10-09T19:56:16.912Z,10.00
2022-10-09T19:58:46.282Z,10.00
2022-10-09T20:01:16.290Z,9.90
2022-10-09T20:03:44.541Z,9.90
2022-10-09T20:06:12.262Z,9.80
2022-10-09T20:08:42.014Z,9.80
2022-10-09T20:11:11.595Z,9.70
2022-10-09T20:13:41.111Z,9.70
2022-10-09T20:16:14.115Z,9.70
2022-10-09T20:18:42.837Z,9.70
2022-10-09T20:21:16.140Z,9.70
2022-10-09T20:23:44.484Z,9.60
2022-10-09T20:26:15.168Z,9.70
2022-10-09T20:28:44.114Z,9.70
2022-10-09T20:31:14.894Z,9.70
2022-10-09T20:33:42.984Z,9.70
2022-10-09T20:36:26.273Z,9.60
2022-10-09T20:39:01.790Z,9.60
2022-10-09T20:41:30.523Z,9.60
2022-10-09T20:44:00.219Z,9.60
2022-10-09T20:46:29.741Z,9.50
2022-10-09T20:48:57.470Z,9.40
2022-10-09T20:51:25.849Z,9.50
2022-10-09T20:53:59.383Z,9.50
2022-10-09T20:56:29.227Z,9.40
2022-10-09T20:58:57.798Z,9.40
2022-10-09T21:01:25.669Z,9.40
2022-10-09T21:03:53.115Z,9.30
2022-10-09T21:06:21.811Z,9.30
2022-10-09T21:08:50.193Z,9.20
2022-10-09T21:11:19.073Z,9.20
2022-10-09T21:13:47.527Z,9.10
2022-10-09T21:16:25.980Z,9.10
2022-10-09T21:19:02.144Z,9.00
2022-10-09T21:21:30.365Z,9.00
2022-10-09T21:23:59.441Z,9.00
2022-10-09T21:26:30.260Z,8.90
2022-10-09T21:28:59.897Z,8.90
2022-10-09T21:31:30.256Z,8.90
2022-10-09T21:33:59.341Z,8.90
2022-10-09T21:37:02.301Z,8.90
2022-10-09T21:39:31.197Z,8.90
2022-10-09T21:41:59.444Z,8.80
2022-10-09T21:44:27.767Z,8.70
2022-10-09T21:46:55.270Z,8.60
2022-10-09T21:49:24.479Z,8.60
2022-10-09T21:51:52.242Z,8.60
2022-10-09T21:54:20.475Z,8.60
2022-10-09T21:56:48.786Z,8.60
2022-10-09T21:59:16.284Z,8.60
2022-10-09T22:01:43.766Z,8.60
2022-10-09T22:04:11.198Z,8.60
2022-10-09T22:06:38.579Z,8.60
2022-10-09T22:09:05.936Z,8.50
2022-10-09T22:11:33.318Z,8.50
2022-10-09T22:14:00.718Z,8.50
2022-10-09T22:16:28.102Z,8.50
2022-10-09T22:18:55.528Z,8.50
2022-10-09T22:21:23.087Z,8.50
2022-10-09T22:23:51.194Z,8.50
2022-10-09T22:26:20.696Z,8.50
2022-10-09T22:28:49.593Z,8.50
2022-10-09T22:31:25.211Z,8.40
2022-10-09T22:33:55.436Z,8.40
2022-10-09T22:36:24.213Z,8.40
2022-10-09T22:38:57.111Z,8.40
2022-10-09T22:41:25.760Z,8.40
2022-10-09T22:43:55.406Z,8.40
2022-10-09T22:46:25.742Z,8.40
2022-10-09T22:48:53.393Z,8.30
2022-10-09T22:51:22.365Z,8.30
2022-10-09T22:53:50.325Z,8.20
2022-10-09T22:56:20.417Z,8.20
2022-10-09T22:58:49.379Z,8.20
2022-10-09T23:01:30.425Z,8.20
2022-10-09T23:03:59.368Z,8.20
2022-10-09T23:06:27.080Z,8.20
2022-10-09T23:08:54.461Z,8.10
2022-10-09T23:11:23.227Z,8.10
2022-10-09T23:13:59.238Z,8.10
2022-10-09T23:16:27.662Z,8.10
2022-10-09T23:18:57.716Z,8.10
2022-10-09T23:21:25.351Z,8.10
2022-10-09T23:23:53.375Z,8.00
2022-10-09T23:26:23.186Z,7.90
2022-10-09T23:29:01.035Z,7.90
2022-10-09T23:31:29.269Z,7.90
2022-10-09T23:33:57.666Z,7.90
2022-10-09T23:36:27.208Z,7.90
2022-10-09T23:38:54.981Z,7.80
2022-10-09T23:41:24.994Z,7.80
2022-10-09T23:43:53.095Z,7.80
2022-10-09T23:46:29.378Z,7.90
2022-10-09T23:48:56.965Z,7.90
2022-10-09T23:51:25.335Z,8.00
2022-10-09T23:53:53.225Z,7.90
2022-10-09T23:56:27.586Z,8.00
2022-10-09T23:58:56.478Z,7.90
